Excel, Alabama
Current Conditions -  °F | °C
As of 2:53 PM on Friday 31 Oct 2014 (Local Time) from KGZH Reporting Station
Scattered Clouds Scattered Clouds  
Wind Chill: 74°   Ceiling: Unl
Heat Index: 74°   Visibility: 10mi
Dew Point: 46°   Wind: 9mph
Humidity: 37%   Direction: 310°NW
Pressure: 29.91"   Gusts: NA
Location:  31.43°N, 87.34°W
Report Text: KGZH 311953Z AUTO 31008KT 10SM FEW060 FEW080 SCT090 23/08 A2991 RMK AO2 SLP127 T02330078
Loading
Personal Weather Stations






























Interactive Weather Map
Tropical Storm Tracking
New forecast layout! Learn more

10-Day Weather Forecast

Advertisements
Track Severe Weather on mobile